createdAt,value
2019-03-08T00:02:40.951Z,99385.47
2019-03-08T00:04:04.284Z,99393.99
2019-03-08T00:05:08.250Z,99389.45
2019-03-08T00:06:33.537Z,99389.81
2019-03-08T00:07:37.358Z,99391.08
2019-03-08T00:09:00.303Z,99394.09
2019-03-08T00:10:04.610Z,99403.02
2019-03-08T00:11:08.853Z,99393.80
2019-03-08T00:12:12.671Z,99392.67
2019-03-08T00:13:35.938Z,99396.56
2019-03-08T00:14:59.264Z,99395.48
2019-03-08T00:16:42.965Z,99395.78
2019-03-08T00:17:46.861Z,99396.17
2019-03-08T00:18:51.365Z,99392.39
2019-03-08T00:19:55.438Z,99395.61
2019-03-08T00:20:59.597Z,99398.11
2019-03-08T00:22:03.802Z,99397.55
2019-03-08T00:23:07.766Z,99397.45
2019-03-08T00:24:11.731Z,99404.89
2019-03-08T00:25:16.155Z,99402.58
2019-03-08T00:26:20.302Z,99401.53
2019-03-08T00:27:24.445Z,99408.61
2019-03-08T00:28:28.588Z,99402.98
2019-03-08T00:29:32.800Z,99403.23
2019-03-08T00:30:37.023Z,99406.33
2019-03-08T00:31:40.980Z,99410.39
2019-03-08T00:32:44.974Z,99409.70
2019-03-08T00:33:48.932Z,99410.58
2019-03-08T00:34:53.116Z,99407.38
2019-03-08T00:35:57.163Z,99408.08
2019-03-08T00:37:02.784Z,99406.60
2019-03-08T00:38:25.801Z,99409.70
2019-03-08T00:41:31.460Z,99396.45
2019-03-08T00:42:35.357Z,99408.17
2019-03-08T00:43:41.572Z,99403.05
2019-03-08T00:44:46.033Z,99413.89
2019-03-08T00:45:49.928Z,99407.48
2019-03-08T00:46:53.820Z,99408.83
2019-03-08T00:47:57.789Z,99406.52
2019-03-08T00:49:01.617Z,99409.62
2019-03-08T00:50:06.478Z,99413.50
2019-03-08T00:51:11.001Z,99413.29
2019-03-08T00:52:14.842Z,99407.78
2019-03-08T00:53:19.058Z,99416.88
2019-03-08T00:54:23.465Z,99410.58
2019-03-08T00:55:46.713Z,99405.45
2019-03-08T00:57:10.074Z,99416.00
2019-03-08T00:58:14.307Z,99416.00
2019-03-08T00:59:37.942Z,99410.88
2019-03-08T01:01:01.396Z,99408.66
2019-03-08T01:02:05.285Z,99401.88
2019-03-08T01:03:09.248Z,99407.30
2019-03-08T01:04:13.456Z,99407.30
2019-03-08T01:05:17.660Z,99411.27
2019-03-08T01:06:21.556Z,99405.45
2019-03-08T01:07:26.020Z,99404.41
2019-03-08T01:08:29.986Z,99405.37
2019-03-08T01:09:33.953Z,99415.25
2019-03-08T01:10:38.087Z,99406.91
2019-03-08T01:11:42.061Z,99413.11
2019-03-08T01:12:46.524Z,99410.88
2019-03-08T01:13:50.409Z,99402.27
2019-03-08T01:14:54.547Z,99406.72
2019-03-08T01:15:59.033Z,99411.75
2019-03-08T01:17:03.340Z,99417.17
2019-03-08T01:18:07.310Z,99409.05
2019-03-08T01:19:11.122Z,99397.50
2019-03-08T01:20:15.943Z,99407.20
2019-03-08T01:21:19.915Z,99411.84
2019-03-08T01:22:23.883Z,99420.94
2019-03-08T01:23:27.775Z,99409.05
2019-03-08T01:24:31.660Z,99412.33
2019-03-08T01:25:35.555Z,99423.95
2019-03-08T01:26:39.779Z,99411.36
2019-03-08T01:28:00.885Z,99414.67
2019-03-08T01:29:05.104Z,99410.22
2019-03-08T01:30:11.193Z,99406.72
2019-03-08T01:31:15.019Z,99406.33
2019-03-08T01:32:19.164Z,99408.17
2019-03-08T01:33:23.313Z,99406.91
2019-03-08T01:34:27.462Z,99412.72
2019-03-08T01:35:31.280Z,99410.88
2019-03-08T01:36:35.685Z,99415.73
2019-03-08T01:37:39.578Z,99414.47
2019-03-08T01:38:43.894Z,99412.63
2019-03-08T01:39:48.282Z,99405.76
2019-03-08T01:40:52.266Z,99418.75
2019-03-08T01:41:56.146Z,99411.45
2019-03-08T01:43:00.612Z,99416.03
2019-03-08T01:44:04.861Z,99415.03
2019-03-08T01:45:08.841Z,99411.36
2019-03-08T01:46:12.982Z,99407.77
2019-03-08T01:47:17.136Z,99410.00
2019-03-08T01:48:40.014Z,99419.11
2019-03-08T01:49:43.852Z,99409.61
2019-03-08T01:51:06.859Z,99417.56
2019-03-08T01:52:30.021Z,99426.28
2019-03-08T01:55:16.343Z,99429.20
2019-03-08T01:56:39.256Z,99437.81
2019-03-08T01:58:02.276Z,99426.67
2019-03-08T02:00:48.557Z,99426.09
2019-03-08T02:01:53.013Z,99429.30
2019-03-08T02:03:17.218Z,99421.16
2019-03-08T02:04:41.282Z,99425.61
2019-03-08T02:06:04.536Z,99430.17
2019-03-08T02:08:22.931Z,99426.58
2019-03-08T02:09:45.944Z,99429.37
2019-03-08T02:14:00.598Z,99441.19
2019-03-08T02:15:44.297Z,99439.75
2019-03-08T02:16:48.124Z,99438.48
2019-03-08T02:17:52.227Z,99435.47
2019-03-08T02:18:56.376Z,99437.91
2019-03-08T02:20:00.345Z,99437.42
2019-03-08T02:21:06.974Z,99441.97
2019-03-08T02:22:10.372Z,99437.13
2019-03-08T02:23:14.505Z,99440.41
2019-03-08T02:24:18.320Z,99437.30
2019-03-08T02:25:22.292Z,99438.30
2019-03-08T02:26:26.100Z,99441.84
2019-03-08T02:27:30.014Z,99444.08
2019-03-08T02:28:34.152Z,99446.61
2019-03-08T02:29:39.161Z,99445.65
2019-03-08T02:30:43.585Z,99446.13
2019-03-08T02:31:47.733Z,99445.08
2019-03-08T02:32:51.887Z,99437.81
2019-03-08T02:33:56.064Z,99450.02
2019-03-08T02:35:00.312Z,99447.09
2019-03-08T02:36:04.346Z,99440.05
2019-03-08T02:37:08.411Z,99450.11
2019-03-08T02:38:12.311Z,99438.39
2019-03-08T02:39:16.277Z,99441.97
2019-03-08T02:40:26.981Z,99434.98
2019-03-08T02:41:31.360Z,99442.94
2019-03-08T02:42:54.644Z,99436.34
2019-03-08T02:43:59.073Z,99441.37
2019-03-08T02:45:44.274Z,99429.86
2019-03-08T02:47:07.369Z,99441.58
2019-03-08T02:48:30.664Z,99438.08
2019-03-08T02:51:39.079Z,99446.52
2019-03-08T02:52:42.904Z,99443.80
2019-03-08T02:55:16.310Z,99455.88
2019-03-08T02:56:20.625Z,99447.73
2019-03-08T02:57:43.653Z,99451.80
2019-03-08T02:59:06.584Z,99451.06
2019-03-08T03:00:50.295Z,99453.16
2019-03-08T03:02:13.233Z,99464.39
2019-03-08T03:03:19.284Z,99463.04
2019-03-08T03:04:44.486Z,99471.65
2019-03-08T03:06:07.502Z,99472.52
2019-03-08T03:07:30.533Z,99473.70
2019-03-08T03:08:53.541Z,99470.52
2019-03-08T03:10:16.564Z,99469.55
2019-03-08T03:11:39.922Z,99465.01
2019-03-08T03:14:26.234Z,99469.25
2019-03-08T03:15:30.709Z,99477.38
2019-03-08T03:16:53.733Z,99483.77
2019-03-08T03:18:16.745Z,99485.52
2019-03-08T03:19:21.159Z,99478.73
2019-03-08T03:20:27.118Z,99484.94
2019-03-08T03:21:32.669Z,99484.46
2019-03-08T03:22:38.568Z,99479.40
2019-03-08T03:24:01.882Z,99484.34
2019-03-08T03:27:08.848Z,99482.72
2019-03-08T03:28:31.856Z,99488.80
2019-03-08T03:29:55.152Z,99490.76
2019-03-08T03:31:18.338Z,99485.34
2019-03-08T03:32:22.164Z,99485.34
2019-03-08T03:33:26.671Z,99494.83
2019-03-08T03:34:30.761Z,99491.12
2019-03-08T03:35:54.133Z,99494.83
2019-03-08T03:37:17.662Z,99497.02
2019-03-08T03:38:40.592Z,99494.62
2019-03-08T03:40:54.468Z,99489.88
2019-03-08T03:41:59.290Z,99489.41
2019-03-08T03:43:03.184Z,99497.72
2019-03-08T03:44:07.073Z,99496.45
2019-03-08T03:45:11.593Z,99492.11
2019-03-08T03:46:15.409Z,99498.89
2019-03-08T03:47:19.296Z,99502.95
2019-03-08T03:48:23.503Z,99507.20
2019-03-08T03:49:27.703Z,99504.97
2019-03-08T03:50:31.528Z,99504.87
2019-03-08T03:51:35.678Z,99503.91
2019-03-08T03:52:39.645Z,99513.39
2019-03-08T03:53:43.791Z,99502.55
2019-03-08T03:54:47.766Z,99496.25
2019-03-08T03:55:51.757Z,99504.05
2019-03-08T03:56:55.895Z,99505.56
2019-03-08T03:57:59.780Z,99494.73
2019-03-08T03:59:04.006Z,99495.91
2019-03-08T04:00:09.182Z,99496.96
2019-03-08T04:01:35.670Z,99495.33
2019-03-08T04:02:40.155Z,99497.25
2019-03-08T04:03:44.365Z,99506.25
2019-03-08T04:04:48.512Z,99506.91
2019-03-08T04:05:52.738Z,99507.47
2019-03-08T04:06:56.965Z,99499.55
2019-03-08T04:08:00.851Z,99511.34
2019-03-08T04:09:09.814Z,99504.06
2019-03-08T04:10:32.915Z,99510.13
2019-03-08T04:11:56.102Z,99516.99
2019-03-08T04:13:00.334Z,99522.61
2019-03-08T04:14:25.340Z,99519.59
2019-03-08T04:17:21.695Z,99526.73
2019-03-08T04:18:26.389Z,99530.00
2019-03-08T04:19:49.689Z,99535.70
2019-03-08T04:20:53.953Z,99533.55
2019-03-08T04:21:57.787Z,99541.11
2019-03-08T04:26:26.069Z,99540.23
2019-03-08T04:27:29.899Z,99538.45
2019-03-08T04:28:34.296Z,99537.74
2019-03-08T04:29:38.509Z,99533.48
2019-03-08T04:31:01.691Z,99535.87
2019-03-08T04:32:25.249Z,99541.28
2019-03-08T04:33:50.276Z,99528.87
2019-03-08T04:34:54.419Z,99543.00
2019-03-08T04:36:17.459Z,99553.98
2019-03-08T04:37:40.346Z,99550.56
2019-03-08T04:38:44.163Z,99541.77
2019-03-08T04:39:48.345Z,99558.16
2019-03-08T04:40:52.165Z,99554.98
2019-03-08T04:41:56.319Z,99557.28
2019-03-08T04:43:19.697Z,99552.70
2019-03-08T04:44:42.715Z,99554.72
2019-03-08T04:45:46.822Z,99549.79
2019-03-08T04:48:20.027Z,99558.81
2019-03-08T04:49:43.205Z,99564.38
2019-03-08T04:52:29.740Z,99560.66
2019-03-08T04:53:53.094Z,99562.97
2019-03-08T04:56:39.445Z,99572.20
2019-03-08T04:58:02.332Z,99574.53
2019-03-08T04:59:25.651Z,99571.98
2019-03-08T05:00:29.468Z,99580.09
2019-03-08T05:01:52.827Z,99585.27
2019-03-08T05:02:56.731Z,99587.81
2019-03-08T05:04:19.665Z,99592.42
2019-03-08T05:05:42.550Z,99592.90
2019-03-08T05:06:47.001Z,99590.30
2019-03-08T05:07:52.627Z,99587.81
2019-03-08T05:09:17.942Z,99593.62
2019-03-08T05:10:40.960Z,99590.12
2019-03-08T05:11:44.787Z,99599.91
2019-03-08T05:13:07.753Z,99601.73
2019-03-08T05:14:30.659Z,99603.89
2019-03-08T05:15:34.558Z,99606.02
2019-03-08T05:16:38.667Z,99612.22
2019-03-08T05:18:01.971Z,99605.45
2019-03-08T05:20:48.169Z,99611.00
2019-03-08T05:22:11.642Z,99606.47
2019-03-08T05:23:15.467Z,99610.30
2019-03-08T05:24:19.293Z,99607.41
2019-03-08T05:25:23.378Z,99608.87
2019-03-08T05:26:46.740Z,99614.09
2019-03-08T05:27:50.657Z,99608.28
2019-03-08T05:28:55.151Z,99615.71
2019-03-08T05:33:24.002Z,99619.71
2019-03-08T05:36:10.576Z,99616.54
2019-03-08T05:37:14.462Z,99617.72
2019-03-08T05:38:18.977Z,99613.77
2019-03-08T05:39:42.638Z,99625.55
2019-03-08T05:41:05.534Z,99624.48
2019-03-08T05:42:09.434Z,99636.29
2019-03-08T05:43:15.013Z,99639.21
2019-03-08T05:44:18.906Z,99641.59
2019-03-08T05:45:42.105Z,99644.22
2019-03-08T05:47:05.240Z,99652.66
2019-03-08T05:48:28.462Z,99645.71
2019-03-08T05:49:32.536Z,99646.99
2019-03-08T05:51:59.879Z,99650.16
2019-03-08T05:53:04.077Z,99662.98
2019-03-08T05:54:27.009Z,99658.34
2019-03-08T05:55:49.947Z,99662.17
2019-03-08T05:56:53.768Z,99661.14
2019-03-08T05:57:57.926Z,99666.45
2019-03-08T05:59:21.291Z,99667.17
2019-03-08T06:00:44.387Z,99657.91
2019-03-08T06:01:48.497Z,99661.61
2019-03-08T06:02:52.647Z,99665.55
2019-03-08T06:03:58.207Z,99661.09
2019-03-08T06:06:46.625Z,99656.88
2019-03-08T06:07:50.439Z,99669.78
2019-03-08T06:08:54.346Z,99670.55
2019-03-08T06:09:58.661Z,99676.77
2019-03-08T06:11:02.543Z,99677.96
2019-03-08T06:12:06.509Z,99680.48
2019-03-08T06:13:10.410Z,99683.91
2019-03-08T06:14:14.481Z,99683.36
2019-03-08T06:15:18.375Z,99679.70
2019-03-08T06:16:22.590Z,99688.50
2019-03-08T06:17:26.813Z,99697.50
2019-03-08T06:18:31.138Z,99697.91
2019-03-08T06:19:35.230Z,99698.78
2019-03-08T06:20:39.709Z,99709.53
2019-03-08T06:21:44.327Z,99704.04
2019-03-08T06:22:48.733Z,99704.33
2019-03-08T06:23:52.802Z,99714.61
2019-03-08T06:24:56.693Z,99712.98
2019-03-08T06:26:00.690Z,99705.45
2019-03-08T06:27:04.653Z,99709.03
2019-03-08T06:28:08.536Z,99711.63
2019-03-08T06:29:12.832Z,99719.68
2019-03-08T06:30:16.803Z,99716.09
2019-03-08T06:31:20.942Z,99723.27
2019-03-08T06:32:24.759Z,99715.54
2019-03-08T06:33:29.345Z,99723.11
2019-03-08T06:34:33.581Z,99719.52
2019-03-08T06:35:37.647Z,99719.45
2019-03-08T06:36:41.857Z,99728.05
2019-03-08T06:37:46.011Z,99719.05
2019-03-08T06:38:50.448Z,99729.32
2019-03-08T06:40:13.993Z,99732.32
2019-03-08T06:41:37.010Z,99737.73
2019-03-08T06:43:00.498Z,99743.80
2019-03-08T06:44:25.532Z,99733.59
2019-03-08T06:45:49.033Z,99734.95
2019-03-08T06:46:53.261Z,99743.48
2019-03-08T06:48:16.922Z,99745.44
2019-03-08T06:49:39.831Z,99747.14
2019-03-08T06:52:25.976Z,99753.70
2019-03-08T06:55:11.739Z,99758.53
2019-03-08T06:56:15.609Z,99756.30
2019-03-08T06:59:20.886Z,99756.02
2019-03-08T07:01:02.872Z,99767.33
2019-03-08T07:02:06.695Z,99765.09
2019-03-08T07:03:30.047Z,99779.99
2019-03-08T07:04:34.761Z,99783.58
2019-03-08T07:05:38.988Z,99787.16
2019-03-08T07:06:43.061Z,99781.56
2019-03-08T07:07:46.890Z,99782.36
2019-03-08T07:08:51.035Z,99790.33
2019-03-08T07:09:55.181Z,99785.52
2019-03-08T07:10:59.007Z,99786.08
2019-03-08T07:12:22.018Z,99797.72
2019-03-08T07:13:45.369Z,99794.05
2019-03-08T07:15:08.723Z,99801.44
2019-03-08T07:16:33.663Z,99803.67
2019-03-08T07:21:02.093Z,99804.39
2019-03-08T07:22:44.269Z,99810.69
2019-03-08T07:24:13.086Z,99807.39
2019-03-08T07:25:36.055Z,99818.95
2019-03-08T07:26:59.203Z,99818.00
2019-03-08T07:28:22.015Z,99819.88
2019-03-08T07:29:45.342Z,99815.49
2019-03-08T07:31:04.679Z,99828.49
2019-03-08T07:32:29.475Z,99831.52
2019-03-08T07:36:56.103Z,99845.43
2019-03-08T07:38:19.485Z,99852.50
2019-03-08T07:39:42.308Z,99848.27
2019-03-08T07:41:05.347Z,99851.52
2019-03-08T07:42:25.284Z,99852.05
2019-03-08T07:44:07.289Z,99848.91
2019-03-08T07:45:30.275Z,99847.39
2019-03-08T07:46:53.235Z,99872.59
2019-03-08T07:48:16.047Z,99862.43
2019-03-08T07:49:39.406Z,99861.23
2019-03-08T07:51:12.630Z,99872.13
2019-03-08T07:52:54.647Z,99873.05
2019-03-08T07:54:36.896Z,99874.36
2019-03-08T07:56:19.143Z,99883.22
2019-03-08T07:58:01.491Z,99874.83
2019-03-08T07:59:24.722Z,99880.46
2019-03-08T08:00:47.623Z,99886.16
2019-03-08T08:02:30.096Z,99872.41
2019-03-08T08:03:52.907Z,99883.47
2019-03-08T08:05:15.735Z,99888.91
2019-03-08T08:06:38.915Z,99882.62
2019-03-08T08:08:02.199Z,99885.17
2019-03-08T08:09:45.608Z,99879.84
2019-03-08T08:10:59.398Z,99889.16
2019-03-08T08:12:22.299Z,99885.65
2019-03-08T08:14:04.575Z,99889.44
2019-03-08T08:15:28.076Z,99895.58
2019-03-08T08:16:50.981Z,99888.22
2019-03-08T08:18:22.489Z,99891.44
2019-03-08T08:19:45.301Z,99897.13
2019-03-08T08:21:27.555Z,99881.20
2019-03-08T08:22:56.085Z,99894.98
2019-03-08T08:24:38.165Z,99898.75
2019-03-08T08:26:01.086Z,99877.84
2019-03-08T08:27:44.544Z,99890.31
2019-03-08T08:29:07.622Z,99899.23
2019-03-08T08:30:49.646Z,99923.27
2019-03-08T08:32:12.612Z,99904.74
2019-03-08T08:33:44.062Z,99912.02
2019-03-08T08:35:26.349Z,99905.34
2019-03-08T08:37:08.359Z,99911.53
2019-03-08T08:38:50.606Z,99911.81
2019-03-08T08:40:32.937Z,99911.61
2019-03-08T08:41:55.997Z,99918.00
2019-03-08T08:43:19.058Z,99920.69
2019-03-08T08:44:41.948Z,99933.66
2019-03-08T08:46:05.274Z,99921.45
2019-03-08T08:47:28.171Z,99919.86
2019-03-08T08:48:51.064Z,99916.98
2019-03-08T08:50:33.096Z,99921.09
2019-03-08T08:51:56.637Z,99920.39
2019-03-08T08:53:38.703Z,99933.06
2019-03-08T08:54:48.923Z,99928.77
2019-03-08T08:56:12.152Z,99929.03
2019-03-08T08:57:34.968Z,99933.44
2019-03-08T08:58:57.861Z,99927.23
2019-03-08T09:00:38.664Z,99930.66
2019-03-08T09:02:01.562Z,99934.09
2019-03-08T09:03:24.748Z,99933.88
2019-03-08T09:04:47.636Z,99910.41
2019-03-08T09:06:30.096Z,99922.52
2019-03-08T09:08:12.015Z,99922.65
2019-03-08T09:09:35.021Z,99932.17
2019-03-08T09:10:58.419Z,99921.86
2019-03-08T09:12:40.447Z,99929.05
2019-03-08T09:14:22.447Z,99920.11
2019-03-08T09:16:04.755Z,99934.22
2019-03-08T09:19:17.891Z,99940.52
2019-03-08T09:20:40.871Z,99939.87
2019-03-08T09:22:23.202Z,99940.93
2019-03-08T09:23:46.742Z,99936.83
2019-03-08T09:25:09.875Z,99942.47
2019-03-08T09:26:51.884Z,99939.23
2019-03-08T09:28:15.019Z,99947.48
2019-03-08T09:29:26.687Z,99956.02
2019-03-08T09:30:49.771Z,99945.98
2019-03-08T09:32:07.988Z,99954.54
2019-03-08T09:33:17.839Z,99938.78
2019-03-08T09:34:29.441Z,99949.67
2019-03-08T09:36:04.727Z,99952.88
2019-03-08T09:37:27.700Z,99943.97
2019-03-08T09:41:03.530Z,99952.88
2019-03-08T09:42:26.428Z,99959.97
2019-03-08T09:44:08.500Z,99961.63
2019-03-08T09:45:31.463Z,99958.70
2019-03-08T09:46:54.607Z,99963.89
2019-03-08T09:48:38.072Z,99951.83
2019-03-08T09:50:20.434Z,99974.19
2019-03-08T09:52:03.968Z,99968.15
2019-03-08T09:53:27.167Z,99984.41
2019-03-08T09:54:50.060Z,99958.19
2019-03-08T09:56:32.063Z,99973.99
2019-03-08T09:58:14.115Z,99969.31
2019-03-08T09:59:37.009Z,99982.17
2019-03-08T10:01:00.324Z,99986.26
2019-03-08T10:03:53.812Z,99984.34
2019-03-08T10:05:06.839Z,99996.83
2019-03-08T10:06:29.753Z,99994.84
2019-03-08T10:07:53.174Z,99989.81
2019-03-08T10:09:35.431Z,100009.12
2019-03-08T10:11:17.474Z,100004.83
2019-03-08T10:12:46.315Z,100008.36
2019-03-08T10:14:09.148Z,100006.02
2019-03-08T10:15:34.872Z,100018.64
2019-03-08T10:17:18.607Z,100012.22
2019-03-08T10:19:01.131Z,100015.92
2019-03-08T10:20:45.219Z,100024.97
2019-03-08T10:22:08.059Z,100022.24
2019-03-08T10:25:29.402Z,100023.55
2019-03-08T10:26:52.769Z,100028.90
2019-03-08T10:28:15.582Z,100043.41
2019-03-08T10:29:38.643Z,100042.23
2019-03-08T10:31:02.089Z,100042.20
2019-03-08T10:32:18.215Z,100059.89
2019-03-08T10:33:31.570Z,100057.81
2019-03-08T10:35:03.284Z,100054.59
2019-03-08T10:36:29.343Z,100058.83
2019-03-08T10:37:55.260Z,100065.90
2019-03-08T10:39:13.141Z,100067.97
2019-03-08T10:40:30.831Z,100076.10
2019-03-08T10:41:40.696Z,100076.87
2019-03-08T10:43:05.914Z,100083.91
2019-03-08T10:44:32.002Z,100087.59
2019-03-08T10:45:43.493Z,100086.60
2019-03-08T10:47:05.566Z,100095.52
2019-03-08T10:48:19.346Z,100094.41
2019-03-08T10:49:36.292Z,100095.64
2019-03-08T10:50:53.456Z,100114.27
2019-03-08T10:52:35.477Z,100102.39
2019-03-08T10:54:00.937Z,100113.03
2019-03-08T10:55:23.838Z,100126.13
2019-03-08T10:56:56.580Z,100125.60
2019-03-08T10:58:19.397Z,100128.11
2019-03-08T10:59:42.230Z,100132.27
2019-03-08T11:00:54.425Z,100137.72
2019-03-08T11:02:17.332Z,100140.45
2019-03-08T11:03:59.331Z,100136.45
2019-03-08T11:05:41.571Z,100144.39
2019-03-08T11:06:53.179Z,100150.13
2019-03-08T11:08:04.124Z,100154.67
2019-03-08T11:09:49.926Z,100128.36
2019-03-08T11:11:13.200Z,100157.58
2019-03-08T11:12:55.220Z,100159.09
2019-03-08T11:14:18.323Z,100179.84
2019-03-08T11:16:00.335Z,100169.39
2019-03-08T11:17:23.235Z,100179.70
2019-03-08T11:19:08.753Z,100179.70
2019-03-08T11:20:49.398Z,100188.61
2019-03-08T11:22:12.221Z,100190.16
2019-03-08T11:23:54.221Z,100186.23
2019-03-08T11:25:17.128Z,100179.05
2019-03-08T11:26:40.452Z,100184.73
2019-03-08T11:28:03.618Z,100187.84
2019-03-08T11:29:36.775Z,100176.03
2019-03-08T11:31:06.642Z,100176.80
2019-03-08T11:32:48.693Z,100166.27
2019-03-08T11:34:11.512Z,100177.27
2019-03-08T11:35:42.309Z,100175.43
2019-03-08T11:37:43.685Z,100169.92
2019-03-08T11:39:06.499Z,100176.84
2019-03-08T11:40:50.631Z,100167.73
2019-03-08T11:42:32.645Z,100169.06
2019-03-08T11:43:46.153Z,100161.29
2019-03-08T11:45:17.127Z,100165.13
2019-03-08T11:46:59.048Z,100159.94
2019-03-08T11:48:41.573Z,100166.13
2019-03-08T11:50:04.390Z,100156.47
2019-03-08T11:51:27.838Z,100154.67
2019-03-08T11:52:50.735Z,100159.03
2019-03-08T11:54:00.917Z,100159.49
2019-03-08T11:57:26.646Z,100164.48
2019-03-08T11:58:49.869Z,100162.12
2019-03-08T12:00:13.034Z,100161.56
2019-03-08T12:01:35.942Z,100164.59
2019-03-08T12:03:16.314Z,100166.27
2019-03-08T12:04:40.713Z,100158.38
2019-03-08T12:06:03.887Z,100162.32
2019-03-08T12:07:47.340Z,100167.08
2019-03-08T12:09:11.169Z,100161.37
2019-03-08T12:10:34.135Z,100169.45
2019-03-08T12:12:16.506Z,100164.50
2019-03-08T12:13:39.410Z,100163.32
2019-03-08T12:15:02.227Z,100163.23
2019-03-08T12:16:25.251Z,100164.99
2019-03-08T12:18:07.270Z,100162.67
2019-03-08T12:19:30.617Z,100159.85
2019-03-08T12:21:12.564Z,100166.36
2019-03-08T12:22:35.727Z,100158.67
2019-03-08T12:24:18.007Z,100177.66
2019-03-08T12:26:00.371Z,100170.36
2019-03-08T12:27:29.881Z,100171.05
2019-03-08T12:29:12.434Z,100170.66
2019-03-08T12:30:54.720Z,100176.91
2019-03-08T12:32:36.977Z,100169.39
2019-03-08T12:34:18.986Z,100184.05
2019-03-08T12:36:00.983Z,100194.92
2019-03-08T12:37:23.947Z,100203.59
2019-03-08T12:39:06.379Z,100207.50
2019-03-08T12:40:48.473Z,100209.32
2019-03-08T12:42:30.714Z,100210.06
2019-03-08T12:43:53.614Z,100223.20
2019-03-08T12:45:35.987Z,100218.80
2019-03-08T12:47:18.226Z,100212.36
2019-03-08T12:48:50.323Z,100223.59
2019-03-08T12:50:14.433Z,100225.47
2019-03-08T12:53:14.105Z,100226.33
2019-03-08T12:54:56.117Z,100225.05
2019-03-08T12:56:38.625Z,100234.06
2019-03-08T12:58:02.242Z,100233.11
2019-03-08T12:59:25.096Z,100227.83
2019-03-08T13:00:35.859Z,100236.45
2019-03-08T13:02:17.882Z,100233.51
2019-03-08T13:04:01.602Z,100247.22
2019-03-08T13:05:45.328Z,100245.64
2019-03-08T13:07:28.649Z,100240.50
2019-03-08T13:08:52.749Z,100260.07
2019-03-08T13:10:16.091Z,100245.29
2019-03-08T13:11:21.951Z,100245.06
2019-03-08T13:13:51.087Z,100253.81
2019-03-08T13:15:14.491Z,100245.68
2019-03-08T13:16:37.507Z,100245.27
2019-03-08T13:18:21.209Z,100251.03
2019-03-08T13:19:44.544Z,100242.34
2019-03-08T13:21:58.286Z,100245.84
2019-03-08T13:23:02.123Z,100249.03
2019-03-08T13:24:25.168Z,100242.58
2019-03-08T13:25:48.533Z,100251.93
2019-03-08T13:26:52.383Z,100245.78
2019-03-08T13:28:15.267Z,100248.75
2019-03-08T13:29:19.694Z,100250.01
2019-03-08T13:30:23.931Z,100245.86
2019-03-08T13:31:28.014Z,100247.48
2019-03-08T13:32:32.157Z,100246.75
2019-03-08T13:33:36.048Z,100253.21
2019-03-08T13:34:39.943Z,100245.62
2019-03-08T13:35:44.265Z,100250.17
2019-03-08T13:36:48.406Z,100244.37
2019-03-08T13:37:52.879Z,100241.33
2019-03-08T13:39:15.901Z,100250.98
2019-03-08T13:40:38.941Z,100243.84
2019-03-08T13:42:02.210Z,100250.23
2019-03-08T13:43:06.512Z,100245.45
2019-03-08T13:44:29.700Z,100245.51
2019-03-08T13:47:21.008Z,100251.28
2019-03-08T13:48:24.986Z,100252.45
2019-03-08T13:49:47.927Z,100257.73
2019-03-08T13:52:20.686Z,100264.93
2019-03-08T13:53:43.712Z,100261.81
2019-03-08T13:54:49.910Z,100269.56
2019-03-08T13:56:13.066Z,100265.96
2019-03-08T13:57:17.213Z,100281.94
2019-03-08T13:58:40.236Z,100276.70
2019-03-08T13:59:56.315Z,100287.31
2019-03-08T14:01:19.600Z,100295.66
2019-03-08T14:02:42.492Z,100288.73
2019-03-08T14:03:46.323Z,100296.66
2019-03-08T14:04:50.463Z,100280.98
2019-03-08T14:08:32.224Z,100285.06
2019-03-08T14:09:56.841Z,100284.18
2019-03-08T14:11:19.955Z,100286.02
2019-03-08T14:12:42.935Z,100287.08
2019-03-08T14:14:05.825Z,100291.30
2019-03-08T14:15:49.692Z,100290.98
2019-03-08T14:18:22.523Z,100290.12
2019-03-08T14:19:26.711Z,100289.06
2019-03-08T14:22:32.705Z,100283.41
2019-03-08T14:23:56.062Z,100286.01
2019-03-08T14:25:00.401Z,100288.02
2019-03-08T14:26:45.437Z,100285.08
2019-03-08T14:28:08.459Z,100283.97
2019-03-08T14:29:12.584Z,100291.30
2019-03-08T14:30:17.674Z,100296.39
2019-03-08T14:31:49.355Z,100296.72
2019-03-08T14:33:11.673Z,100295.28
2019-03-08T14:34:34.811Z,100302.08
2019-03-08T14:35:58.094Z,100303.59
2019-03-08T14:37:03.990Z,100302.38
2019-03-08T14:38:07.981Z,100309.19
2019-03-08T14:39:11.943Z,100305.78
2019-03-08T14:40:57.566Z,100303.69
2019-03-08T14:42:20.653Z,100313.02
2019-03-08T14:44:02.671Z,100305.69
2019-03-08T14:45:12.517Z,100318.14
2019-03-08T14:46:35.404Z,100320.70
2019-03-08T14:47:59.893Z,100338.03
2019-03-08T14:49:04.374Z,100344.19
2019-03-08T14:50:49.358Z,100351.02
2019-03-08T14:52:12.471Z,100350.83
2019-03-08T14:53:35.490Z,100337.94
2019-03-08T14:54:42.292Z,100331.50
2019-03-08T14:56:03.925Z,100311.73
2019-03-08T14:57:27.550Z,100313.27
2019-03-08T14:58:36.795Z,100299.53
2019-03-08T14:59:38.403Z,100299.56
2019-03-08T15:01:02.140Z,100298.00
2019-03-08T15:02:26.733Z,100296.41
2019-03-08T15:03:50.160Z,100297.86
2019-03-08T15:05:15.406Z,100299.95
2019-03-08T15:06:38.300Z,100303.28
2019-03-08T15:08:03.059Z,100295.80
2019-03-08T15:09:48.071Z,100296.74
2019-03-08T15:12:37.590Z,100300.09
2019-03-08T15:13:59.697Z,100293.72
2019-03-08T15:15:07.304Z,100303.38
2019-03-08T15:16:09.175Z,100302.38
2019-03-08T15:17:13.319Z,100300.45
2019-03-08T15:18:18.784Z,100303.33
2019-03-08T15:19:22.845Z,100294.11
2019-03-08T15:20:27.066Z,100298.48
2019-03-08T15:21:33.246Z,100301.91
2019-03-08T15:22:38.081Z,100300.28
2019-03-08T15:23:45.051Z,100302.69
2019-03-08T15:24:48.606Z,100301.43
2019-03-08T15:25:54.177Z,100307.80
2019-03-08T15:26:58.325Z,100299.19
2019-03-08T15:28:02.231Z,100302.72
2019-03-08T15:29:06.055Z,100310.34
2019-03-08T15:30:12.364Z,100304.75
2019-03-08T15:31:16.191Z,100309.16
2019-03-08T15:32:27.684Z,100301.36
2019-03-08T15:33:50.793Z,100305.81
2019-03-08T15:34:54.621Z,100308.52
2019-03-08T15:36:17.633Z,100315.77
2019-03-08T15:39:04.024Z,100306.45
2019-03-08T15:40:10.646Z,100308.69
2019-03-08T15:42:56.938Z,100309.73
2019-03-08T15:44:20.296Z,100305.44
2019-03-08T15:47:25.317Z,100310.52
2019-03-08T15:48:49.345Z,100305.88
2019-03-08T15:50:13.379Z,100303.97
2019-03-08T15:51:36.614Z,100311.50
2019-03-08T15:52:59.985Z,100310.92
2019-03-08T15:54:23.275Z,100307.19
2019-03-08T15:55:53.044Z,100316.14
2019-03-08T15:56:54.172Z,100323.73
2019-03-08T15:58:17.388Z,100328.17
2019-03-08T15:59:21.513Z,100331.30
2019-03-08T16:01:04.992Z,100334.27
2019-03-08T16:03:52.941Z,100316.59
2019-03-08T16:05:15.846Z,100325.30
2019-03-08T16:08:03.778Z,100325.23
2019-03-08T16:09:47.583Z,100327.27
2019-03-08T16:11:10.603Z,100328.39
2019-03-08T16:12:14.765Z,100321.59
2019-03-08T16:13:19.199Z,100324.58
2019-03-08T16:14:23.450Z,100328.01
2019-03-08T16:15:27.606Z,100328.95
2019-03-08T16:16:31.830Z,100325.53
2019-03-08T16:17:36.744Z,100331.03
2019-03-08T16:18:44.007Z,100326.08
2019-03-08T16:19:46.995Z,100332.79
2019-03-08T16:20:51.203Z,100327.43